createdAt,value
2023-03-15T00:01:20.849Z,94283.56
2023-03-15T00:04:27.133Z,94292.44
2023-03-15T00:07:30.982Z,94299.81
2023-03-15T00:10:34.955Z,94297.72
2023-03-15T00:13:38.640Z,94306.22
2023-03-15T00:16:43.935Z,94316.31
2023-03-15T00:19:48.515Z,94310.16
2023-03-15T00:22:52.517Z,94315.97
2023-03-15T00:25:56.402Z,94323.97
2023-03-15T00:29:00.352Z,94331.22
2023-03-15T00:32:04.098Z,94326.38
2023-03-15T00:35:08.398Z,94333.19
2023-03-15T00:38:12.608Z,94340.59
2023-03-15T00:41:19.872Z,94343.19
2023-03-15T00:44:27.165Z,94347.47
2023-03-15T00:47:31.016Z,94348.22
2023-03-15T00:50:35.847Z,94354.84
2023-03-15T00:53:41.563Z,94352.09
2023-03-15T00:56:45.645Z,94354.75
2023-03-15T00:59:49.326Z,94360.00
2023-03-15T01:02:54.792Z,94367.59
2023-03-15T01:05:58.846Z,94372.03
2023-03-15T01:09:02.645Z,94376.91
2023-03-15T01:12:06.682Z,94378.47
2023-03-15T01:15:13.774Z,94382.69
2023-03-15T01:18:17.361Z,94386.28
2023-03-15T01:21:21.530Z,94385.84
2023-03-15T01:24:24.537Z,94389.41
2023-03-15T01:27:28.846Z,94391.50
2023-03-15T01:30:32.556Z,94392.47
2023-03-15T01:33:36.297Z,94391.66
2023-03-15T01:36:39.209Z,94385.84
2023-03-15T01:39:43.617Z,94389.22
2023-03-15T01:43:20.082Z,94391.94
2023-03-15T01:46:27.495Z,94392.44
2023-03-15T01:49:45.246Z,94390.59
2023-03-15T01:52:49.402Z,94387.00
2023-03-15T01:55:55.585Z,94389.59
2023-03-15T01:59:10.882Z,94387.22
2023-03-15T02:02:15.905Z,94385.44
2023-03-15T02:05:23.108Z,94385.16
2023-03-15T02:08:30.016Z,94383.41
2023-03-15T02:11:34.624Z,94378.81
2023-03-15T02:14:38.626Z,94383.47
2023-03-15T02:17:46.129Z,94391.53
2023-03-15T02:21:02.690Z,94385.78
2023-03-15T02:24:10.021Z,94387.09
2023-03-15T02:27:13.710Z,94380.28
2023-03-15T02:30:17.864Z,94378.66
2023-03-15T02:33:24.453Z,94386.09
2023-03-15T02:36:32.612Z,94385.63
2023-03-15T02:39:36.193Z,94388.00
2023-03-15T02:42:40.347Z,94379.78
2023-03-15T02:45:44.952Z,94385.63
2023-03-15T02:48:48.901Z,94382.09
2023-03-15T02:51:52.400Z,94378.84
2023-03-15T02:54:55.747Z,94378.22
2023-03-15T02:57:59.541Z,94383.38
2023-03-15T03:01:03.074Z,94378.50
2023-03-15T03:04:06.283Z,94373.31
2023-03-15T03:07:09.813Z,94379.63
2023-03-15T03:10:25.405Z,94373.38
2023-03-15T03:13:32.440Z,94371.50
2023-03-15T03:16:38.865Z,94369.47
2023-03-15T03:19:42.092Z,94370.97
2023-03-15T03:22:46.251Z,94366.56
2023-03-15T03:25:50.327Z,94376.75
2023-03-15T03:28:54.614Z,94370.56
2023-03-15T03:32:01.137Z,94379.22
2023-03-15T03:35:04.537Z,94378.09
2023-03-15T03:38:12.008Z,94368.78
2023-03-15T03:41:18.372Z,94365.94
2023-03-15T03:44:22.536Z,94360.81
2023-03-15T03:47:25.712Z,94359.19
2023-03-15T03:50:29.485Z,94350.72
2023-03-15T03:53:32.592Z,94350.72
2023-03-15T03:56:36.640Z,94356.47
2023-03-15T03:59:40.438Z,94350.88
2023-03-15T04:02:45.052Z,94342.78
2023-03-15T04:05:53.369Z,94347.41
2023-03-15T04:08:59.633Z,94351.22
2023-03-15T04:12:11.647Z,94344.03
2023-03-15T04:15:17.430Z,94350.22
2023-03-15T04:18:20.466Z,94348.81
2023-03-15T04:21:25.178Z,94345.47
2023-03-15T04:24:37.585Z,94342.34
2023-03-15T04:27:47.293Z,94339.72
2023-03-15T04:31:29.501Z,94336.88
2023-03-15T04:34:56.474Z,94340.03
2023-03-15T04:38:07.351Z,94338.63
2023-03-15T04:41:37.633Z,94332.41
2023-03-15T04:44:56.383Z,94330.16
2023-03-15T04:48:28.987Z,94325.94
2023-03-15T04:51:52.943Z,94332.78
2023-03-15T04:55:15.539Z,94330.28
2023-03-15T04:58:36.509Z,94318.63
2023-03-15T05:02:06.198Z,94325.56
2023-03-15T05:05:33.889Z,94314.56
2023-03-15T05:08:50.121Z,94314.47
2023-03-15T05:12:06.030Z,94305.31
2023-03-15T05:15:32.807Z,94307.97
2023-03-15T05:18:52.251Z,94302.56
2023-03-15T05:22:15.043Z,94301.09
2023-03-15T05:25:38.743Z,94297.41
2023-03-15T05:28:57.316Z,94301.81
2023-03-15T05:32:15.083Z,94291.22
2023-03-15T05:35:37.381Z,94283.59
2023-03-15T05:38:54.864Z,94275.22
2023-03-15T05:42:26.906Z,94272.66
2023-03-15T05:45:33.567Z,94278.47
2023-03-15T05:48:59.229Z,94274.44
2023-03-15T05:52:10.281Z,94278.06
2023-03-15T05:55:38.087Z,94267.09
2023-03-15T05:59:02.487Z,94271.88
2023-03-15T06:02:26.817Z,94270.75
2023-03-15T06:05:55.470Z,94274.41
2023-03-15T06:09:08.140Z,94279.88
2023-03-15T06:12:12.203Z,94274.59
2023-03-15T06:15:17.354Z,94265.31
2023-03-15T06:18:21.169Z,94273.00
2023-03-15T06:21:27.103Z,94271.84
2023-03-15T06:24:30.136Z,94265.00
2023-03-15T06:27:33.535Z,94273.50
2023-03-15T06:30:37.765Z,94271.75
2023-03-15T06:33:44.316Z,94268.84
2023-03-15T06:36:50.028Z,94266.84
2023-03-15T06:39:55.323Z,94268.94
2023-03-15T06:42:58.669Z,94263.13
2023-03-15T06:46:02.423Z,94266.78
2023-03-15T06:49:07.709Z,94254.22
2023-03-15T06:52:12.799Z,94264.81
2023-03-15T06:55:19.053Z,94259.31
2023-03-15T07:01:50.017Z,94256.81
2023-03-15T07:04:53.406Z,94248.44
2023-03-15T07:07:56.334Z,94263.81
2023-03-15T07:11:00.545Z,94256.06
2023-03-15T07:14:03.428Z,94258.22
2023-03-15T07:17:06.718Z,94249.16
2023-03-15T07:20:10.468Z,94262.53
2023-03-15T07:23:13.897Z,94255.78
2023-03-15T07:26:16.922Z,94252.53
2023-03-15T07:29:20.137Z,94261.28
2023-03-15T07:32:23.900Z,94259.84
2023-03-15T07:35:27.198Z,94261.22
2023-03-15T07:38:30.175Z,94254.56
2023-03-15T07:41:33.327Z,94260.44
2023-03-15T07:44:56.412Z,94260.09
2023-03-15T07:47:59.652Z,94265.09
2023-03-15T07:51:02.669Z,94266.75
2023-03-15T07:54:07.108Z,94261.25
2023-03-15T07:57:11.126Z,94266.31
2023-03-15T08:00:15.499Z,94269.75
2023-03-15T08:03:18.506Z,94262.88
2023-03-15T08:06:22.700Z,94266.97
2023-03-15T08:09:26.272Z,94262.22
2023-03-15T08:12:30.985Z,94261.44
2023-03-15T08:15:34.852Z,94270.19
2023-03-15T08:18:38.092Z,94264.66
2023-03-15T08:21:45.947Z,94260.66
2023-03-15T08:24:50.448Z,94256.69
2023-03-15T08:27:53.918Z,94262.13
2023-03-15T08:30:57.704Z,94267.50
2023-03-15T08:34:00.625Z,94265.63
2023-03-15T08:37:03.693Z,94265.63
2023-03-15T08:40:12.102Z,94278.78
2023-03-15T08:43:15.690Z,94265.88
2023-03-15T08:46:22.807Z,94270.84
2023-03-15T08:49:26.115Z,94277.06
2023-03-15T08:52:29.701Z,94273.09
2023-03-15T08:55:32.543Z,94278.09
2023-03-15T08:58:36.506Z,94273.31
2023-03-15T09:01:40.943Z,94273.63
2023-03-15T09:04:45.098Z,94269.38
2023-03-15T09:07:49.631Z,94277.72
2023-03-15T09:11:00.197Z,94278.78
2023-03-15T09:14:03.845Z,94270.16
2023-03-15T09:17:07.687Z,94275.50
2023-03-15T09:20:17.000Z,94282.97
2023-03-15T09:23:21.036Z,94281.69
2023-03-15T09:26:24.136Z,94282.81
2023-03-15T09:29:27.938Z,94279.59
2023-03-15T09:32:36.792Z,94280.69
2023-03-15T09:35:40.182Z,94287.25
2023-03-15T09:38:44.713Z,94285.00
2023-03-15T09:41:55.758Z,94288.13
2023-03-15T09:45:06.490Z,94285.78
2023-03-15T09:48:25.906Z,94296.16
2023-03-15T09:51:51.992Z,94297.56
2023-03-15T09:55:26.928Z,94300.38
2023-03-15T09:58:36.349Z,94304.28
2023-03-15T10:01:41.859Z,94305.06
2023-03-15T10:04:48.212Z,94306.97
2023-03-15T10:07:53.152Z,94309.47
2023-03-15T10:11:27.868Z,94312.28
2023-03-15T10:14:59.789Z,94305.94
2023-03-15T10:18:19.328Z,94317.44
2023-03-15T10:21:34.498Z,94315.53
2023-03-15T10:24:55.941Z,94324.00
2023-03-15T10:28:17.907Z,94323.84
2023-03-15T10:31:41.060Z,94328.97
2023-03-15T10:34:53.131Z,94327.34
2023-03-15T10:37:56.113Z,94332.22
2023-03-15T10:41:00.443Z,94327.97
2023-03-15T10:44:07.698Z,94333.09
2023-03-15T10:47:23.709Z,94331.88
2023-03-15T10:50:33.931Z,94334.00
2023-03-15T10:53:38.564Z,94338.00
2023-03-15T10:57:01.639Z,94341.97
2023-03-15T11:00:20.632Z,94344.88
2023-03-15T11:03:25.392Z,94342.78
2023-03-15T11:06:29.808Z,94353.72
2023-03-15T11:09:42.825Z,94349.66
2023-03-15T11:12:46.824Z,94357.44
2023-03-15T11:16:22.874Z,94362.31
2023-03-15T11:19:33.252Z,94366.25
2023-03-15T11:22:36.349Z,94360.84
2023-03-15T11:25:40.590Z,94365.84
2023-03-15T11:28:49.676Z,94364.09
2023-03-15T11:31:53.604Z,94367.47
2023-03-15T11:35:07.680Z,94365.53
2023-03-15T11:38:30.384Z,94371.06
2023-03-15T11:41:38.017Z,94368.59
2023-03-15T11:44:50.040Z,94367.75
2023-03-15T11:48:05.331Z,94369.47
2023-03-15T11:51:11.070Z,94375.53
2023-03-15T11:54:19.323Z,94378.72
2023-03-15T11:57:44.933Z,94377.66
2023-03-15T12:00:48.086Z,94379.63
2023-03-15T12:03:52.152Z,94378.03
2023-03-15T12:06:58.139Z,94374.31
2023-03-15T12:10:04.270Z,94383.13
2023-03-15T12:13:18.513Z,94375.91
2023-03-15T12:16:23.524Z,94380.69
2023-03-15T12:19:27.800Z,94378.63
2023-03-15T12:22:35.232Z,94379.28
2023-03-15T12:25:54.369Z,94374.56
2023-03-15T12:29:01.703Z,94386.31
2023-03-15T12:32:05.111Z,94377.00
2023-03-15T12:35:16.773Z,94378.78
2023-03-15T12:38:23.770Z,94380.53
2023-03-15T12:41:47.130Z,94378.78
2023-03-15T12:44:50.090Z,94376.84
2023-03-15T12:48:13.712Z,94379.44
2023-03-15T12:52:05.796Z,94373.25
2023-03-15T12:55:16.452Z,94388.28
2023-03-15T12:58:22.549Z,94390.72
2023-03-15T13:01:52.597Z,94394.84
2023-03-15T13:05:10.148Z,94399.47
2023-03-15T13:08:26.657Z,94395.34
2023-03-15T13:11:35.886Z,94399.75
2023-03-15T13:14:54.590Z,94399.59
2023-03-15T13:18:18.361Z,94402.63
2023-03-15T13:21:32.616Z,94413.09
2023-03-15T13:25:05.972Z,94408.56
2023-03-15T13:28:23.098Z,94406.88
2023-03-15T13:31:31.132Z,94413.22
2023-03-15T13:34:35.305Z,94415.00
2023-03-15T13:37:42.403Z,94413.88
2023-03-15T13:40:48.265Z,94416.47
2023-03-15T13:43:53.438Z,94407.13
2023-03-15T13:47:00.219Z,94413.03
2023-03-15T13:50:07.444Z,94416.72
2023-03-15T13:53:39.444Z,94422.09
2023-03-15T13:57:19.851Z,94421.53
2023-03-15T14:00:24.172Z,94424.53
2023-03-15T14:03:29.312Z,94415.97
2023-03-15T14:10:22.723Z,94429.59
2023-03-15T14:13:28.279Z,94434.75
2023-03-15T14:16:35.758Z,94442.13
2023-03-15T14:19:38.768Z,94438.13
2023-03-15T14:22:44.980Z,94447.09
2023-03-15T14:25:57.585Z,94445.94
2023-03-15T14:29:11.026Z,94451.31
2023-03-15T14:32:32.994Z,94454.19
2023-03-15T14:35:36.596Z,94462.28
2023-03-15T14:38:40.747Z,94456.94
2023-03-15T14:41:43.712Z,94465.25
2023-03-15T14:44:46.834Z,94465.03
2023-03-15T14:48:06.081Z,94465.38
2023-03-15T14:51:16.919Z,94466.66
2023-03-15T14:54:20.187Z,94461.59
2023-03-15T14:57:23.221Z,94468.34
2023-03-15T15:00:26.312Z,94471.84
2023-03-15T15:03:41.768Z,94464.47
2023-03-15T15:06:53.569Z,94472.38
2023-03-15T15:09:57.406Z,94469.84
2023-03-15T15:13:06.340Z,94484.41
2023-03-15T15:16:10.623Z,94490.19
2023-03-15T15:19:13.826Z,94493.22
2023-03-15T15:22:18.321Z,94490.59
2023-03-15T15:25:25.081Z,94492.50
2023-03-15T15:28:36.609Z,94497.34
2023-03-15T15:31:40.380Z,94498.69
2023-03-15T15:34:44.358Z,94506.88
2023-03-15T15:37:50.780Z,94503.06
2023-03-15T15:40:54.342Z,94512.25
2023-03-15T15:44:01.926Z,94510.34
2023-03-15T15:47:05.695Z,94516.31
2023-03-15T15:50:13.824Z,94521.88
2023-03-15T15:53:19.076Z,94530.69
2023-03-15T15:56:27.677Z,94531.50
2023-03-15T15:59:32.058Z,94529.50
2023-03-15T16:02:35.850Z,94537.25
2023-03-15T16:05:39.912Z,94532.63
2023-03-15T16:08:44.227Z,94525.66
2023-03-15T16:11:49.541Z,94533.56
2023-03-15T16:14:53.790Z,94539.09
2023-03-15T16:17:57.952Z,94525.63
2023-03-15T16:21:01.742Z,94538.00
2023-03-15T16:24:31.078Z,94530.59
2023-03-15T16:27:34.101Z,94532.84
2023-03-15T16:30:38.428Z,94531.69
2023-03-15T16:33:42.097Z,94534.53
2023-03-15T16:36:49.568Z,94538.72
2023-03-15T16:40:00.300Z,94545.25
2023-03-15T16:43:06.832Z,94551.78
2023-03-15T16:46:17.752Z,94546.31
2023-03-15T16:49:21.645Z,94556.13
2023-03-15T16:52:25.224Z,94552.81
2023-03-15T16:55:34.333Z,94553.59
2023-03-15T16:58:37.561Z,94556.28
2023-03-15T17:01:41.196Z,94563.72
2023-03-15T17:04:45.630Z,94555.72
2023-03-15T17:07:51.302Z,94557.34
2023-03-15T17:10:55.813Z,94564.75
2023-03-15T17:14:00.137Z,94566.97
2023-03-15T17:17:04.175Z,94559.38
2023-03-15T17:20:11.004Z,94560.00
2023-03-15T17:23:14.656Z,94561.88
2023-03-15T17:26:20.793Z,94572.09
2023-03-15T17:29:24.846Z,94577.88
2023-03-15T17:32:29.561Z,94569.13
2023-03-15T17:35:44.471Z,94576.53
2023-03-15T17:38:48.691Z,94592.19
2023-03-15T17:41:53.762Z,94598.06
2023-03-15T17:44:57.369Z,94597.13
2023-03-15T17:48:02.036Z,94596.50
2023-03-15T17:51:07.362Z,94599.84
2023-03-15T17:54:19.165Z,94604.09
2023-03-15T17:57:22.421Z,94604.47
2023-03-15T18:00:26.037Z,94606.06
2023-03-15T18:03:28.883Z,94609.50
2023-03-15T18:06:31.704Z,94612.13
2023-03-15T18:09:34.710Z,94614.81
2023-03-15T18:12:38.874Z,94608.44
2023-03-15T18:15:42.557Z,94610.81
2023-03-15T18:18:46.731Z,94613.59
2023-03-15T18:21:50.322Z,94614.19
2023-03-15T18:24:54.303Z,94610.16
2023-03-15T18:27:58.799Z,94614.56
2023-03-15T18:31:03.185Z,94607.03
2023-03-15T18:34:07.235Z,94608.75
2023-03-15T18:37:12.139Z,94610.50
2023-03-15T18:40:18.277Z,94616.28
2023-03-15T18:43:21.340Z,94619.84
2023-03-15T18:46:25.986Z,94617.13
2023-03-15T18:49:29.283Z,94622.75
2023-03-15T18:52:33.452Z,94623.56
2023-03-15T18:55:36.484Z,94629.53
2023-03-15T18:58:39.672Z,94629.91
2023-03-15T19:01:43.130Z,94631.84
2023-03-15T19:04:47.028Z,94627.38
2023-03-15T19:07:51.028Z,94636.81
2023-03-15T19:10:59.809Z,94638.09
2023-03-15T19:14:02.665Z,94631.19
2023-03-15T19:17:06.418Z,94628.25
2023-03-15T19:20:12.511Z,94639.94
2023-03-15T19:23:15.630Z,94632.69
2023-03-15T19:26:18.649Z,94634.25
2023-03-15T19:29:21.620Z,94634.16
2023-03-15T19:32:25.139Z,94644.44
2023-03-15T19:35:29.238Z,94641.09
2023-03-15T19:38:33.988Z,94644.91
2023-03-15T19:41:37.452Z,94650.94
2023-03-15T19:44:41.349Z,94650.03
2023-03-15T19:47:44.473Z,94649.41
2023-03-15T19:50:48.686Z,94649.56
2023-03-15T19:53:52.293Z,94640.28
2023-03-15T19:56:55.625Z,94652.91
2023-03-15T19:59:58.610Z,94643.91
2023-03-15T20:03:02.536Z,94650.22
2023-03-15T20:06:12.866Z,94635.84
2023-03-15T20:09:16.660Z,94646.41
2023-03-15T20:12:20.298Z,94649.94
2023-03-15T20:15:25.339Z,94650.69
2023-03-15T20:18:28.949Z,94658.44
2023-03-15T20:21:32.911Z,94650.69
2023-03-15T20:24:37.193Z,94652.56
2023-03-15T20:27:40.551Z,94656.94
2023-03-15T20:30:44.444Z,94656.66
2023-03-15T20:33:50.628Z,94662.34
2023-03-15T20:36:53.522Z,94657.84
2023-03-15T20:39:57.518Z,94660.84
2023-03-15T20:43:00.691Z,94662.50
2023-03-15T20:46:04.817Z,94665.31
2023-03-15T20:49:08.920Z,94674.50
2023-03-15T20:52:12.740Z,94665.50
2023-03-15T20:55:16.575Z,94666.59
2023-03-15T20:58:19.539Z,94670.31
2023-03-15T21:01:23.243Z,94675.59
2023-03-15T21:04:28.647Z,94676.72
2023-03-15T21:07:32.446Z,94670.31
2023-03-15T21:10:37.713Z,94669.31
2023-03-15T21:13:41.375Z,94669.19
2023-03-15T21:16:44.261Z,94669.66
2023-03-15T21:19:47.503Z,94675.16
2023-03-15T21:22:50.419Z,94678.66
2023-03-15T21:25:58.263Z,94672.53
2023-03-15T21:29:01.174Z,94675.97
2023-03-15T21:32:05.640Z,94673.13
2023-03-15T21:35:09.532Z,94672.38
2023-03-15T21:38:12.980Z,94679.59
2023-03-15T21:41:15.923Z,94671.72
2023-03-15T21:44:18.974Z,94670.31
2023-03-15T21:47:22.279Z,94678.22
2023-03-15T21:50:27.042Z,94676.44
2023-03-15T21:53:34.608Z,94686.28
2023-03-15T21:56:37.521Z,94693.44
2023-03-15T21:59:41.552Z,94689.72
2023-03-15T22:02:44.761Z,94696.97
2023-03-15T22:05:47.707Z,94696.06
2023-03-15T22:08:51.139Z,94702.84
2023-03-15T22:11:54.019Z,94700.13
2023-03-15T22:15:05.381Z,94701.56
2023-03-15T22:18:08.700Z,94711.69
2023-03-15T22:21:11.849Z,94712.34
2023-03-15T22:24:15.476Z,94717.09
2023-03-15T22:27:19.450Z,94708.13
2023-03-15T22:30:23.578Z,94714.72
2023-03-15T22:33:27.696Z,94712.50
2023-03-15T22:36:34.145Z,94718.91
2023-03-15T22:39:37.377Z,94712.00
2023-03-15T22:42:40.793Z,94720.88
2023-03-15T22:45:44.402Z,94722.09
2023-03-15T22:48:47.328Z,94726.38
2023-03-15T22:51:50.265Z,94720.69
2023-03-15T22:54:53.183Z,94726.91
2023-03-15T22:57:57.272Z,94721.44
2023-03-15T23:01:01.067Z,94732.88
2023-03-15T23:04:04.656Z,94731.13
2023-03-15T23:07:07.874Z,94735.66
2023-03-15T23:10:12.288Z,94735.19
2023-03-15T23:13:15.697Z,94732.97
2023-03-15T23:16:19.551Z,94741.69
2023-03-15T23:19:22.934Z,94738.56
2023-03-15T23:22:26.493Z,94747.63
2023-03-15T23:25:30.547Z,94750.69
2023-03-15T23:28:34.410Z,94743.19
2023-03-15T23:31:42.675Z,94755.09
2023-03-15T23:34:46.755Z,94754.75
2023-03-15T23:37:49.618Z,94760.00
2023-03-15T23:40:58.920Z,94754.50
2023-03-15T23:44:03.434Z,94765.09
2023-03-15T23:47:07.973Z,94769.31
2023-03-15T23:50:13.196Z,94769.03
2023-03-15T23:53:16.845Z,94769.75
2023-03-15T23:56:20.530Z,94765.78
2023-03-15T23:59:24.432Z,94766.41
